sensor_id;sensor_type;location;lat;lon;timestamp;P1;durP1;ratioP1;P2;durP2;ratioP2
3447;SDS011;1738;49.500;17.736;2023-07-31T00:01:33;6.10;;;3.57;;
3447;SDS011;1738;49.500;17.736;2023-07-31T00:03:59;4.10;;;3.30;;
3447;SDS011;1738;49.500;17.736;2023-07-31T00:06:24;5.97;;;2.97;;
3447;SDS011;1738;49.500;17.736;2023-07-31T00:08:50;4.93;;;3.77;;
3447;SDS011;1738;49.500;17.736;2023-07-31T00:11:16;5.83;;;3.03;;
3447;SDS011;1738;49.500;17.736;2023-07-31T00:13:42;3.90;;;2.75;;
3447;SDS011;1738;49.500;17.736;2023-07-31T00:16:08;7.43;;;3.87;;
3447;SDS011;1738;49.500;17.736;2023-07-31T00:18:34;4.80;;;3.20;;
3447;SDS011;1738;49.500;17.736;2023-07-31T00:20:59;3.77;;;2.63;;
3447;SDS011;1738;49.500;17.736;2023-07-31T00:23:25;4.10;;;3.07;;
3447;SDS011;1738;49.500;17.736;2023-07-31T00:25:51;3.80;;;2.70;;
3447;SDS011;1738;49.500;17.736;2023-07-31T00:28:17;5.17;;;2.70;;
3447;SDS011;1738;49.500;17.736;2023-07-31T00:30:43;5.47;;;3.07;;
3447;SDS011;1738;49.500;17.736;2023-07-31T00:33:09;5.10;;;3.10;;
3447;SDS011;1738;49.500;17.736;2023-07-31T00:35:35;7.67;;;3.60;;
3447;SDS011;1738;49.500;17.736;2023-07-31T00:38:00;5.00;;;3.10;;
3447;SDS011;1738;49.500;17.736;2023-07-31T00:40:26;7.40;;;2.70;;
3447;SDS011;1738;49.500;17.736;2023-07-31T00:42:52;5.07;;;2.73;;
3447;SDS011;1738;49.500;17.736;2023-07-31T00:45:18;6.13;;;3.30;;
3447;SDS011;1738;49.500;17.736;2023-07-31T00:47:44;5.70;;;3.23;;
3447;SDS011;1738;49.500;17.736;2023-07-31T00:50:10;5.10;;;3.13;;
3447;SDS011;1738;49.500;17.736;2023-07-31T00:52:36;4.37;;;3.37;;
3447;SDS011;1738;49.500;17.736;2023-07-31T00:55:01;4.03;;;2.83;;
3447;SDS011;1738;49.500;17.736;2023-07-31T00:57:27;6.73;;;2.70;;
3447;SDS011;1738;49.500;17.736;2023-07-31T00:59:53;8.70;;;3.30;;
3447;SDS011;1738;49.500;17.736;2023-07-31T01:02:19;4.60;;;3.10;;
3447;SDS011;1738;49.500;17.736;2023-07-31T01:04:45;5.63;;;2.80;;
3447;SDS011;1738;49.500;17.736;2023-07-31T01:07:12;7.70;;;2.60;;
3447;SDS011;1738;49.500;17.736;2023-07-31T01:09:39;3.90;;;2.20;;
3447;SDS011;1738;49.500;17.736;2023-07-31T01:12:03;4.10;;;2.80;;
3447;SDS011;1738;49.500;17.736;2023-07-31T01:14:29;6.37;;;2.75;;
3447;SDS011;1738;49.500;17.736;2023-07-31T01:16:55;9.20;;;3.17;;
3447;SDS011;1738;49.500;17.736;2023-07-31T01:19:22;4.83;;;3.13;;
3447;SDS011;1738;49.500;17.736;2023-07-31T01:21:53;5.30;;;2.60;;
3447;SDS011;1738;49.500;17.736;2023-07-31T01:24:19;5.50;;;3.10;;
3447;SDS011;1738;49.500;17.736;2023-07-31T01:26:41;6.13;;;3.17;;
3447;SDS011;1738;49.500;17.736;2023-07-31T01:29:10;5.77;;;3.20;;
3447;SDS011;1738;49.500;17.736;2023-07-31T01:31:33;5.10;;;2.73;;
3447;SDS011;1738;49.500;17.736;2023-07-31T01:34:01;7.30;;;2.70;;
3447;SDS011;1738;49.500;17.736;2023-07-31T01:36:25;7.03;;;3.00;;
3447;SDS011;1738;49.500;17.736;2023-07-31T01:38:51;4.30;;;3.00;;
3447;SDS011;1738;49.500;17.736;2023-07-31T01:41:17;4.60;;;3.00;;
3447;SDS011;1738;49.500;17.736;2023-07-31T01:43:43;5.07;;;3.23;;
3447;SDS011;1738;49.500;17.736;2023-07-31T01:46:09;8.00;;;2.73;;
3447;SDS011;1738;49.500;17.736;2023-07-31T01:48:34;7.00;;;2.60;;
3447;SDS011;1738;49.500;17.736;2023-07-31T01:51:00;5.10;;;3.07;;
3447;SDS011;1738;49.500;17.736;2023-07-31T01:53:26;4.70;;;3.50;;
3447;SDS011;1738;49.500;17.736;2023-07-31T01:55:52;8.30;;;2.73;;
3447;SDS011;1738;49.500;17.736;2023-07-31T01:58:18;5.80;;;3.20;;
3447;SDS011;1738;49.500;17.736;2023-07-31T02:00:44;5.10;;;2.93;;
3447;SDS011;1738;49.500;17.736;2023-07-31T02:03:10;6.30;;;3.10;;
3447;SDS011;1738;49.500;17.736;2023-07-31T02:05:35;4.97;;;2.80;;
3447;SDS011;1738;49.500;17.736;2023-07-31T02:08:01;5.93;;;3.73;;
3447;SDS011;1738;49.500;17.736;2023-07-31T02:10:27;5.07;;;3.20;;
3447;SDS011;1738;49.500;17.736;2023-07-31T02:12:53;11.30;;;3.53;;
3447;SDS011;1738;49.500;17.736;2023-07-31T02:15:19;3.80;;;2.83;;
3447;SDS011;1738;49.500;17.736;2023-07-31T02:17:45;4.23;;;3.27;;
3447;SDS011;1738;49.500;17.736;2023-07-31T02:20:11;5.30;;;2.92;;
3447;SDS011;1738;49.500;17.736;2023-07-31T02:22:37;4.73;;;3.17;;
3447;SDS011;1738;49.500;17.736;2023-07-31T02:25:03;10.33;;;3.20;;
3447;SDS011;1738;49.500;17.736;2023-07-31T02:27:28;6.47;;;3.50;;
3447;SDS011;1738;49.500;17.736;2023-07-31T02:29:54;4.82;;;2.72;;
3447;SDS011;1738;49.500;17.736;2023-07-31T02:32:20;9.00;;;2.93;;
3447;SDS011;1738;49.500;17.736;2023-07-31T02:34:46;7.50;;;3.60;;
3447;SDS011;1738;49.500;17.736;2023-07-31T02:37:12;5.93;;;3.10;;
3447;SDS011;1738;49.500;17.736;2023-07-31T02:39:38;4.17;;;2.47;;
3447;SDS011;1738;49.500;17.736;2023-07-31T02:42:04;6.30;;;2.93;;
3447;SDS011;1738;49.500;17.736;2023-07-31T02:44:30;5.77;;;2.73;;
3447;SDS011;1738;49.500;17.736;2023-07-31T02:46:56;9.63;;;3.20;;
3447;SDS011;1738;49.500;17.736;2023-07-31T02:49:21;11.67;;;3.10;;
3447;SDS011;1738;49.500;17.736;2023-07-31T02:51:47;6.07;;;3.67;;
3447;SDS011;1738;49.500;17.736;2023-07-31T02:54:13;4.90;;;3.27;;
3447;SDS011;1738;49.500;17.736;2023-07-31T02:56:39;6.13;;;2.60;;
3447;SDS011;1738;49.500;17.736;2023-07-31T02:59:05;9.73;;;3.40;;
3447;SDS011;1738;49.500;17.736;2023-07-31T03:01:31;4.37;;;3.27;;
3447;SDS011;1738;49.500;17.736;2023-07-31T03:03:56;6.33;;;3.20;;
3447;SDS011;1738;49.500;17.736;2023-07-31T03:06:22;7.18;;;3.33;;
3447;SDS011;1738;49.500;17.736;2023-07-31T03:08:48;4.90;;;3.03;;
3447;SDS011;1738;49.500;17.736;2023-07-31T03:11:14;5.90;;;3.53;;
3447;SDS011;1738;49.500;17.736;2023-07-31T03:13:40;8.60;;;3.37;;
3447;SDS011;1738;49.500;17.736;2023-07-31T03:16:06;6.37;;;3.57;;
3447;SDS011;1738;49.500;17.736;2023-07-31T03:18:32;10.17;;;3.40;;
3447;SDS011;1738;49.500;17.736;2023-07-31T03:20:57;5.77;;;3.30;;
3447;SDS011;1738;49.500;17.736;2023-07-31T03:23:23;4.60;;;2.87;;
3447;SDS011;1738;49.500;17.736;2023-07-31T03:28:21;6.73;;;3.40;;
3447;SDS011;1738;49.500;17.736;2023-07-31T03:30:47;6.07;;;3.80;;
3447;SDS011;1738;49.500;17.736;2023-07-31T03:33:12;12.70;;;3.23;;
3447;SDS011;1738;49.500;17.736;2023-07-31T03:35:38;5.80;;;3.50;;
3447;SDS011;1738;49.500;17.736;2023-07-31T03:38:04;9.63;;;2.80;;
3447;SDS011;1738;49.500;17.736;2023-07-31T03:40:30;5.80;;;3.73;;
3447;SDS011;1738;49.500;17.736;2023-07-31T03:42:56;6.20;;;3.27;;
3447;SDS011;1738;49.500;17.736;2023-07-31T03:45:22;6.07;;;3.70;;
3447;SDS011;1738;49.500;17.736;2023-07-31T03:47:47;5.27;;;3.33;;
3447;SDS011;1738;49.500;17.736;2023-07-31T03:50:13;5.67;;;3.90;;
3447;SDS011;1738;49.500;17.736;2023-07-31T03:52:40;6.03;;;3.67;;
3447;SDS011;1738;49.500;17.736;2023-07-31T03:55:05;5.30;;;3.17;;
3447;SDS011;1738;49.500;17.736;2023-07-31T03:57:31;5.27;;;3.43;;
3447;SDS011;1738;49.500;17.736;2023-07-31T03:59:57;5.23;;;3.47;;
3447;SDS011;1738;49.500;17.736;2023-07-31T04:02:23;5.23;;;2.97;;
3447;SDS011;1738;49.500;17.736;2023-07-31T04:04:48;6.00;;;3.57;;
3447;SDS011;1738;49.500;17.736;2023-07-31T04:07:14;5.70;;;3.55;;
3447;SDS011;1738;49.500;17.736;2023-07-31T04:09:40;6.50;;;2.90;;
3447;SDS011;1738;49.500;17.736;2023-07-31T04:12:06;6.53;;;3.50;;
3447;SDS011;1738;49.500;17.736;2023-07-31T04:14:32;5.13;;;3.03;;
3447;SDS011;1738;49.500;17.736;2023-07-31T04:16:58;6.47;;;3.40;;
3447;SDS011;1738;49.500;17.736;2023-07-31T04:19:24;7.07;;;2.97;;
3447;SDS011;1738;49.500;17.736;2023-07-31T04:21:49;7.73;;;4.50;;
3447;SDS011;1738;49.500;17.736;2023-07-31T04:24:15;6.63;;;3.80;;
3447;SDS011;1738;49.500;17.736;2023-07-31T04:26:41;6.77;;;3.70;;
3447;SDS011;1738;49.500;17.736;2023-07-31T04:29:07;5.97;;;3.40;;
3447;SDS011;1738;49.500;17.736;2023-07-31T04:31:33;8.03;;;3.57;;
3447;SDS011;1738;49.500;17.736;2023-07-31T04:33:59;5.40;;;3.50;;
3447;SDS011;1738;49.500;17.736;2023-07-31T04:36:25;6.93;;;3.33;;
3447;SDS011;1738;49.500;17.736;2023-07-31T04:38:51;9.10;;;3.10;;
3447;SDS011;1738;49.500;17.736;2023-07-31T04:41:17;5.60;;;2.93;;
3447;SDS011;1738;49.500;17.736;2023-07-31T04:43:43;4.30;;;3.20;;
3447;SDS011;1738;49.500;17.736;2023-07-31T04:46:09;4.67;;;3.07;;
3447;SDS011;1738;49.500;17.736;2023-07-31T04:48:35;13.80;;;3.93;;
3447;SDS011;1738;49.500;17.736;2023-07-31T04:51:00;4.60;;;2.83;;
3447;SDS011;1738;49.500;17.736;2023-07-31T04:53:26;5.55;;;3.12;;
3447;SDS011;1738;49.500;17.736;2023-07-31T04:55:52;8.57;;;4.03;;
3447;SDS011;1738;49.500;17.736;2023-07-31T04:58:18;10.97;;;3.47;;
3447;SDS011;1738;49.500;17.736;2023-07-31T05:00:44;6.27;;;3.70;;
3447;SDS011;1738;49.500;17.736;2023-07-31T05:03:10;5.07;;;3.03;;
3447;SDS011;1738;49.500;17.736;2023-07-31T05:05:36;5.37;;;2.80;;
3447;SDS011;1738;49.500;17.736;2023-07-31T05:08:01;6.30;;;2.60;;
3447;SDS011;1738;49.500;17.736;2023-07-31T05:10:27;6.43;;;3.30;;
3447;SDS011;1738;49.500;17.736;2023-07-31T05:12:53;4.97;;;3.03;;
3447;SDS011;1738;49.500;17.736;2023-07-31T05:15:19;7.13;;;3.20;;
3447;SDS011;1738;49.500;17.736;2023-07-31T05:17:45;9.63;;;3.57;;
3447;SDS011;1738;49.500;17.736;2023-07-31T05:20:11;10.53;;;3.60;;
3447;SDS011;1738;49.500;17.736;2023-07-31T05:22:37;17.30;;;4.43;;
3447;SDS011;1738;49.500;17.736;2023-07-31T05:25:03;6.30;;;3.33;;
3447;SDS011;1738;49.500;17.736;2023-07-31T05:27:29;7.87;;;3.60;;
3447;SDS011;1738;49.500;17.736;2023-07-31T05:29:54;4.30;;;2.93;;
3447;SDS011;1738;49.500;17.736;2023-07-31T05:32:20;8.90;;;3.50;;
3447;SDS011;1738;49.500;17.736;2023-07-31T05:34:46;6.40;;;3.10;;
3447;SDS011;1738;49.500;17.736;2023-07-31T05:37:12;4.70;;;2.60;;
3447;SDS011;1738;49.500;17.736;2023-07-31T05:39:38;6.20;;;3.37;;
3447;SDS011;1738;49.500;17.736;2023-07-31T05:42:04;5.60;;;3.20;;
3447;SDS011;1738;49.500;17.736;2023-07-31T05:44:30;6.67;;;3.13;;
3447;SDS011;1738;49.500;17.736;2023-07-31T05:46:56;5.23;;;2.90;;
3447;SDS011;1738;49.500;17.736;2023-07-31T05:49:22;4.77;;;3.40;;
3447;SDS011;1738;49.500;17.736;2023-07-31T05:51:47;6.83;;;3.40;;
3447;SDS011;1738;49.500;17.736;2023-07-31T05:54:13;10.37;;;4.13;;
3447;SDS011;1738;49.500;17.736;2023-07-31T05:56:39;5.43;;;3.40;;
3447;SDS011;1738;49.500;17.736;2023-07-31T05:59:05;6.90;;;3.95;;
3447;SDS011;1738;49.500;17.736;2023-07-31T06:01:31;7.70;;;3.13;;
3447;SDS011;1738;49.500;17.736;2023-07-31T06:03:57;5.00;;;3.30;;
3447;SDS011;1738;49.500;17.736;2023-07-31T06:06:22;5.97;;;3.70;;
3447;SDS011;1738;49.500;17.736;2023-07-31T06:08:48;4.60;;;3.00;;
3447;SDS011;1738;49.500;17.736;2023-07-31T06:11:14;5.90;;;3.57;;
3447;SDS011;1738;49.500;17.736;2023-07-31T06:13:40;4.85;;;3.70;;
3447;SDS011;1738;49.500;17.736;2023-07-31T06:16:06;5.70;;;3.03;;
3447;SDS011;1738;49.500;17.736;2023-07-31T06:18:32;7.30;;;3.27;;
3447;SDS011;1738;49.500;17.736;2023-07-31T06:20:58;10.90;;;3.20;;
3447;SDS011;1738;49.500;17.736;2023-07-31T06:23:23;6.27;;;3.60;;
3447;SDS011;1738;49.500;17.736;2023-07-31T06:25:49;4.87;;;3.90;;
3447;SDS011;1738;49.500;17.736;2023-07-31T06:28:15;7.10;;;3.80;;
3447;SDS011;1738;49.500;17.736;2023-07-31T06:30:41;4.90;;;3.10;;
3447;SDS011;1738;49.500;17.736;2023-07-31T06:33:07;6.28;;;3.10;;
3447;SDS011;1738;49.500;17.736;2023-07-31T06:35:33;6.70;;;3.37;;
3447;SDS011;1738;49.500;17.736;2023-07-31T06:37:58;5.00;;;2.97;;
3447;SDS011;1738;49.500;17.736;2023-07-31T06:40:24;8.60;;;3.37;;
3447;SDS011;1738;49.500;17.736;2023-07-31T06:42:50;6.83;;;3.50;;
3447;SDS011;1738;49.500;17.736;2023-07-31T06:45:16;5.03;;;3.50;;
3447;SDS011;1738;49.500;17.736;2023-07-31T06:47:42;5.70;;;3.30;;
3447;SDS011;1738;49.500;17.736;2023-07-31T06:50:08;6.20;;;3.10;;
3447;SDS011;1738;49.500;17.736;2023-07-31T06:52:34;10.23;;;3.23;;
3447;SDS011;1738;49.500;17.736;2023-07-31T06:55:00;5.43;;;3.53;;
3447;SDS011;1738;49.500;17.736;2023-07-31T06:57:25;5.20;;;3.50;;
3447;SDS011;1738;49.500;17.736;2023-07-31T06:59:51;9.53;;;3.40;;
3447;SDS011;1738;49.500;17.736;2023-07-31T07:02:17;4.25;;;3.17;;
3447;SDS011;1738;49.500;17.736;2023-07-31T07:04:43;7.13;;;3.27;;
3447;SDS011;1738;49.500;17.736;2023-07-31T07:07:09;8.17;;;3.50;;
3447;SDS011;1738;49.500;17.736;2023-07-31T07:09:35;4.97;;;2.77;;
3447;SDS011;1738;49.500;17.736;2023-07-31T07:12:00;8.37;;;3.70;;
3447;SDS011;1738;49.500;17.736;2023-07-31T07:14:26;5.00;;;3.03;;
3447;SDS011;1738;49.500;17.736;2023-07-31T07:16:52;4.67;;;3.10;;
3447;SDS011;1738;49.500;17.736;2023-07-31T07:19:18;5.33;;;3.10;;
3447;SDS011;1738;49.500;17.736;2023-07-31T07:21:44;6.73;;;3.40;;
3447;SDS011;1738;49.500;17.736;2023-07-31T07:24:10;8.00;;;3.57;;
3447;SDS011;1738;49.500;17.736;2023-07-31T07:26:35;4.63;;;3.70;;
3447;SDS011;1738;49.500;17.736;2023-07-31T07:29:01;4.57;;;2.80;;
3447;SDS011;1738;49.500;17.736;2023-07-31T07:31:27;6.50;;;2.83;;
3447;SDS011;1738;49.500;17.736;2023-07-31T07:33:53;6.77;;;3.10;;
3447;SDS011;1738;49.500;17.736;2023-07-31T07:36:19;5.87;;;3.27;;
3447;SDS011;1738;49.500;17.736;2023-07-31T07:38:45;8.50;;;3.00;;
3447;SDS011;1738;49.500;17.736;2023-07-31T07:41:11;7.10;;;3.70;;
3447;SDS011;1738;49.500;17.736;2023-07-31T07:43:37;5.20;;;2.80;;
3447;SDS011;1738;49.500;17.736;2023-07-31T07:46:02;6.90;;;3.20;;
3447;SDS011;1738;49.500;17.736;2023-07-31T07:48:28;5.30;;;3.60;;
3447;SDS011;1738;49.500;17.736;2023-07-31T07:50:54;6.77;;;3.40;;
3447;SDS011;1738;49.500;17.736;2023-07-31T07:53:20;8.00;;;3.73;;
3447;SDS011;1738;49.500;17.736;2023-07-31T07:55:46;7.07;;;3.50;;
3447;SDS011;1738;49.500;17.736;2023-07-31T07:58:12;8.50;;;3.67;;
3447;SDS011;1738;49.500;17.736;2023-07-31T08:00:38;7.37;;;3.30;;
3447;SDS011;1738;49.500;17.736;2023-07-31T08:03:03;9.27;;;3.37;;
3447;SDS011;1738;49.500;17.736;2023-07-31T08:05:29;5.93;;;3.10;;
3447;SDS011;1738;49.500;17.736;2023-07-31T08:07:55;5.90;;;3.47;;
3447;SDS011;1738;49.500;17.736;2023-07-31T08:10:21;6.80;;;3.37;;
3447;SDS011;1738;49.500;17.736;2023-07-31T08:12:47;6.00;;;3.20;;
3447;SDS011;1738;49.500;17.736;2023-07-31T08:15:13;5.97;;;2.80;;
3447;SDS011;1738;49.500;17.736;2023-07-31T08:17:38;7.37;;;3.40;;
3447;SDS011;1738;49.500;17.736;2023-07-31T08:20:05;9.93;;;3.10;;
3447;SDS011;1738;49.500;17.736;2023-07-31T08:22:31;4.50;;;2.70;;
3447;SDS011;1738;49.500;17.736;2023-07-31T08:24:57;6.40;;;2.70;;
3447;SDS011;1738;49.500;17.736;2023-07-31T08:27:22;7.67;;;3.10;;
3447;SDS011;1738;49.500;17.736;2023-07-31T08:29:48;5.63;;;2.97;;
3447;SDS011;1738;49.500;17.736;2023-07-31T08:32:14;4.60;;;2.50;;
3447;SDS011;1738;49.500;17.736;2023-07-31T08:34:40;10.80;;;3.27;;
3447;SDS011;1738;49.500;17.736;2023-07-31T08:37:06;8.23;;;4.87;;
3447;SDS011;1738;49.500;17.736;2023-07-31T08:39:32;6.00;;;3.03;;
3447;SDS011;1738;49.500;17.736;2023-07-31T08:41:58;5.00;;;2.57;;
3447;SDS011;1738;49.500;17.736;2023-07-31T08:44:23;6.77;;;3.37;;
3447;SDS011;1738;49.500;17.736;2023-07-31T08:46:49;4.67;;;2.80;;
3447;SDS011;1738;49.500;17.736;2023-07-31T08:49:15;6.10;;;2.57;;
3447;SDS011;1738;49.500;17.736;2023-07-31T08:51:41;5.13;;;2.53;;
3447;SDS011;1738;49.500;17.736;2023-07-31T08:54:07;8.33;;;2.87;;
3447;SDS011;1738;49.500;17.736;2023-07-31T08:56:33;6.00;;;3.10;;
3447;SDS011;1738;49.500;17.736;2023-07-31T08:58:59;6.40;;;2.97;;
3447;SDS011;1738;49.500;17.736;2023-07-31T09:01:24;8.20;;;2.80;;
3447;SDS011;1738;49.500;17.736;2023-07-31T09:03:50;6.47;;;2.67;;
3447;SDS011;1738;49.500;17.736;2023-07-31T09:06:16;6.97;;;2.40;;
3447;SDS011;1738;49.500;17.736;2023-07-31T09:08:42;6.43;;;2.20;;
3447;SDS011;1738;49.500;17.736;2023-07-31T09:11:08;8.80;;;2.87;;
3447;SDS011;1738;49.500;17.736;2023-07-31T09:13:33;10.60;;;3.20;;
3447;SDS011;1738;49.500;17.736;2023-07-31T09:15:59;6.73;;;3.07;;
3447;SDS011;1738;49.500;17.736;2023-07-31T09:18:25;4.30;;;2.00;;
3447;SDS011;1738;49.500;17.736;2023-07-31T09:23:23;3.87;;;2.23;;
3447;SDS011;1738;49.500;17.736;2023-07-31T09:25:49;5.10;;;2.40;;
3447;SDS011;1738;49.500;17.736;2023-07-31T09:28:14;4.50;;;2.20;;
3447;SDS011;1738;49.500;17.736;2023-07-31T09:30:44;6.13;;;2.30;;
3447;SDS011;1738;49.500;17.736;2023-07-31T09:33:09;7.45;;;2.55;;
3447;SDS011;1738;49.500;17.736;2023-07-31T09:35:35;6.37;;;2.33;;
3447;SDS011;1738;49.500;17.736;2023-07-31T09:38:03;5.67;;;2.20;;
3447;SDS011;1738;49.500;17.736;2023-07-31T09:40:27;6.60;;;2.53;;
3447;SDS011;1738;49.500;17.736;2023-07-31T09:42:53;8.10;;;2.47;;
3447;SDS011;1738;49.500;17.736;2023-07-31T09:45:18;5.32;;;2.22;;
3447;SDS011;1738;49.500;17.736;2023-07-31T09:47:46;5.10;;;2.00;;
3447;SDS011;1738;49.500;17.736;2023-07-31T09:50:12;5.43;;;2.43;;
3447;SDS011;1738;49.500;17.736;2023-07-31T09:52:38;9.43;;;3.23;;
3447;SDS011;1738;49.500;17.736;2023-07-31T09:55:03;6.73;;;2.20;;
3447;SDS011;1738;49.500;17.736;2023-07-31T09:57:29;5.63;;;2.30;;
3447;SDS011;1738;49.500;17.736;2023-07-31T09:59:55;5.47;;;2.20;;
3447;SDS011;1738;49.500;17.736;2023-07-31T10:02:21;4.70;;;2.77;;
3447;SDS011;1738;49.500;17.736;2023-07-31T10:04:48;8.03;;;3.20;;
3447;SDS011;1738;49.500;17.736;2023-07-31T10:07:13;4.90;;;2.50;;
3447;SDS011;1738;49.500;17.736;2023-07-31T10:09:39;5.50;;;2.73;;
3447;SDS011;1738;49.500;17.736;2023-07-31T10:12:05;6.47;;;2.73;;
3447;SDS011;1738;49.500;17.736;2023-07-31T10:14:31;6.20;;;2.37;;
3447;SDS011;1738;49.500;17.736;2023-07-31T10:16:57;7.75;;;2.55;;
3447;SDS011;1738;49.500;17.736;2023-07-31T10:19:23;5.60;;;2.37;;
3447;SDS011;1738;49.500;17.736;2023-07-31T10:21:49;7.17;;;2.40;;
3447;SDS011;1738;49.500;17.736;2023-07-31T10:24:15;4.60;;;2.63;;
3447;SDS011;1738;49.500;17.736;2023-07-31T10:26:41;7.23;;;2.43;;
3447;SDS011;1738;49.500;17.736;2023-07-31T10:29:06;7.57;;;2.50;;
3447;SDS011;1738;49.500;17.736;2023-07-31T10:31:32;4.83;;;2.17;;
3447;SDS011;1738;49.500;17.736;2023-07-31T10:33:58;6.47;;;2.60;;
3447;SDS011;1738;49.500;17.736;2023-07-31T10:36:25;6.13;;;2.03;;
3447;SDS011;1738;49.500;17.736;2023-07-31T10:38:51;3.83;;;1.90;;
3447;SDS011;1738;49.500;17.736;2023-07-31T10:41:17;8.18;;;2.45;;
3447;SDS011;1738;49.500;17.736;2023-07-31T10:43:45;3.60;;;1.70;;
3447;SDS011;1738;49.500;17.736;2023-07-31T10:46:12;6.10;;;2.23;;
3447;SDS011;1738;49.500;17.736;2023-07-31T10:48:38;4.30;;;2.30;;
3447;SDS011;1738;49.500;17.736;2023-07-31T10:51:08;5.43;;;2.43;;
3447;SDS011;1738;49.500;17.736;2023-07-31T10:53:32;5.40;;;2.30;;
3447;SDS011;1738;49.500;17.736;2023-07-31T10:55:58;4.37;;;2.17;;
3447;SDS011;1738;49.500;17.736;2023-07-31T10:58:24;6.00;;;2.47;;
3447;SDS011;1738;49.500;17.736;2023-07-31T11:00:51;7.03;;;2.00;;
3447;SDS011;1738;49.500;17.736;2023-07-31T11:03:16;6.50;;;1.80;;
3447;SDS011;1738;49.500;17.736;2023-07-31T11:05:44;4.40;;;2.43;;
3447;SDS011;1738;49.500;17.736;2023-07-31T11:08:11;4.40;;;2.07;;
3447;SDS011;1738;49.500;17.736;2023-07-31T11:10:36;5.60;;;1.93;;
3447;SDS011;1738;49.500;17.736;2023-07-31T11:13:03;8.07;;;2.43;;
3447;SDS011;1738;49.500;17.736;2023-07-31T11:15:27;4.40;;;2.07;;
3447;SDS011;1738;49.500;17.736;2023-07-31T11:17:53;8.83;;;3.00;;
3447;SDS011;1738;49.500;17.736;2023-07-31T11:20:19;4.53;;;2.20;;
3447;SDS011;1738;49.500;17.736;2023-07-31T11:22:45;4.82;;;2.05;;
3447;SDS011;1738;49.500;17.736;2023-07-31T11:25:11;3.87;;;1.83;;
3447;SDS011;1738;49.500;17.736;2023-07-31T11:27:39;5.60;;;2.37;;
3447;SDS011;1738;49.500;17.736;2023-07-31T11:30:04;7.23;;;2.30;;
3447;SDS011;1738;49.500;17.736;2023-07-31T11:32:30;3.47;;;2.10;;
3447;SDS011;1738;49.500;17.736;2023-07-31T11:34:56;4.13;;;1.93;;
3447;SDS011;1738;49.500;17.736;2023-07-31T11:37:22;4.17;;;2.07;;
3447;SDS011;1738;49.500;17.736;2023-07-31T11:42:20;5.67;;;1.93;;
3447;SDS011;1738;49.500;17.736;2023-07-31T11:44:45;2.80;;;1.67;;
3447;SDS011;1738;49.500;17.736;2023-07-31T11:47:11;7.70;;;2.77;;
3447;SDS011;1738;49.500;17.736;2023-07-31T11:49:37;7.67;;;2.53;;
3447;SDS011;1738;49.500;17.736;2023-07-31T11:52:03;6.43;;;2.62;;
3447;SDS011;1738;49.500;17.736;2023-07-31T11:54:29;4.63;;;2.10;;
3447;SDS011;1738;49.500;17.736;2023-07-31T11:56:55;5.27;;;2.20;;
3447;SDS011;1738;49.500;17.736;2023-07-31T11:59:21;3.33;;;2.17;;
3447;SDS011;1738;49.500;17.736;2023-07-31T12:01:47;4.63;;;2.30;;
3447;SDS011;1738;49.500;17.736;2023-07-31T12:04:13;4.05;;;2.10;;
3447;SDS011;1738;49.500;17.736;2023-07-31T12:06:39;6.03;;;2.47;;
3447;SDS011;1738;49.500;17.736;2023-07-31T12:09:05;8.20;;;1.83;;
3447;SDS011;1738;49.500;17.736;2023-07-31T12:11:31;4.90;;;1.73;;
3447;SDS011;1738;49.500;17.736;2023-07-31T12:13:57;4.40;;;1.90;;
3447;SDS011;1738;49.500;17.736;2023-07-31T12:16:25;8.57;;;2.10;;
3447;SDS011;1738;49.500;17.736;2023-07-31T12:18:49;6.13;;;2.37;;
3447;SDS011;1738;49.500;17.736;2023-07-31T12:21:14;5.13;;;2.13;;
3447;SDS011;1738;49.500;17.736;2023-07-31T12:23:40;5.03;;;2.27;;
3447;SDS011;1738;49.500;17.736;2023-07-31T12:26:08;4.70;;;2.13;;
3447;SDS011;1738;49.500;17.736;2023-07-31T12:28:35;8.30;;;1.97;;
3447;SDS011;1738;49.500;17.736;2023-07-31T12:31:00;5.10;;;1.80;;
3447;SDS011;1738;49.500;17.736;2023-07-31T12:33:33;5.10;;;1.93;;
3447;SDS011;1738;49.500;17.736;2023-07-31T12:36:00;7.00;;;2.33;;
3447;SDS011;1738;49.500;17.736;2023-07-31T12:38:25;3.67;;;2.10;;
3447;SDS011;1738;49.500;17.736;2023-07-31T12:40:51;3.90;;;2.17;;
3447;SDS011;1738;49.500;17.736;2023-07-31T12:43:17;3.83;;;2.10;;
3447;SDS011;1738;49.500;17.736;2023-07-31T12:45:43;4.70;;;1.80;;
3447;SDS011;1738;49.500;17.736;2023-07-31T12:48:09;3.27;;;1.83;;
3447;SDS011;1738;49.500;17.736;2023-07-31T12:50:34;6.20;;;1.83;;
3447;SDS011;1738;49.500;17.736;2023-07-31T12:53:00;3.60;;;1.83;;
3447;SDS011;1738;49.500;17.736;2023-07-31T12:55:26;3.00;;;1.70;;
3447;SDS011;1738;49.500;17.736;2023-07-31T12:57:52;4.03;;;1.70;;
3447;SDS011;1738;49.500;17.736;2023-07-31T13:00:18;7.20;;;2.00;;
3447;SDS011;1738;49.500;17.736;2023-07-31T13:02:43;4.33;;;1.63;;
3447;SDS011;1738;49.500;17.736;2023-07-31T13:05:09;7.30;;;2.00;;
3447;SDS011;1738;49.500;17.736;2023-07-31T13:07:35;4.73;;;1.73;;
3447;SDS011;1738;49.500;17.736;2023-07-31T13:10:01;4.90;;;1.70;;
3447;SDS011;1738;49.500;17.736;2023-07-31T13:12:27;3.93;;;1.63;;
3447;SDS011;1738;49.500;17.736;2023-07-31T13:14:53;5.23;;;1.93;;
3447;SDS011;1738;49.500;17.736;2023-07-31T13:17:18;3.73;;;1.43;;
3447;SDS011;1738;49.500;17.736;2023-07-31T13:19:44;4.40;;;1.97;;
3447;SDS011;1738;49.500;17.736;2023-07-31T13:22:10;4.53;;;2.00;;
3447;SDS011;1738;49.500;17.736;2023-07-31T13:24:36;5.00;;;2.07;;
3447;SDS011;1738;49.500;17.736;2023-07-31T13:27:02;5.03;;;1.80;;
3447;SDS011;1738;49.500;17.736;2023-07-31T13:29:28;3.07;;;1.60;;
3447;SDS011;1738;49.500;17.736;2023-07-31T13:31:54;10.23;;;2.23;;
3447;SDS011;1738;49.500;17.736;2023-07-31T13:34:20;6.50;;;1.90;;
3447;SDS011;1738;49.500;17.736;2023-07-31T13:36:45;4.17;;;1.93;;
3447;SDS011;1738;49.500;17.736;2023-07-31T13:39:11;4.40;;;2.20;;
3447;SDS011;1738;49.500;17.736;2023-07-31T13:41:37;4.70;;;2.27;;
3447;SDS011;1738;49.500;17.736;2023-07-31T13:44:03;2.90;;;1.70;;
3447;SDS011;1738;49.500;17.736;2023-07-31T13:46:29;6.53;;;2.30;;
3447;SDS011;1738;49.500;17.736;2023-07-31T13:48:55;2.93;;;1.43;;
3447;SDS011;1738;49.500;17.736;2023-07-31T13:51:21;7.73;;;3.37;;
3447;SDS011;1738;49.500;17.736;2023-07-31T13:53:47;4.67;;;2.20;;
3447;SDS011;1738;49.500;17.736;2023-07-31T13:56:12;6.20;;;2.13;;
3447;SDS011;1738;49.500;17.736;2023-07-31T13:58:38;4.27;;;2.43;;
3447;SDS011;1738;49.500;17.736;2023-07-31T14:01:04;5.63;;;2.30;;
3447;SDS011;1738;49.500;17.736;2023-07-31T14:03:30;2.80;;;1.60;;
3447;SDS011;1738;49.500;17.736;2023-07-31T14:05:56;3.43;;;1.93;;
3447;SDS011;1738;49.500;17.736;2023-07-31T14:08:22;3.63;;;2.13;;
3447;SDS011;1738;49.500;17.736;2023-07-31T14:10:48;3.80;;;1.40;;
3447;SDS011;1738;49.500;17.736;2023-07-31T14:13:13;3.63;;;1.93;;
3447;SDS011;1738;49.500;17.736;2023-07-31T14:15:41;3.90;;;1.60;;
3447;SDS011;1738;49.500;17.736;2023-07-31T14:18:05;5.63;;;2.20;;
3447;SDS011;1738;49.500;17.736;2023-07-31T14:20:31;7.10;;;2.27;;
3447;SDS011;1738;49.500;17.736;2023-07-31T14:22:57;5.53;;;1.73;;
3447;SDS011;1738;49.500;17.736;2023-07-31T14:25:23;8.50;;;2.80;;
3447;SDS011;1738;49.500;17.736;2023-07-31T14:27:48;6.57;;;2.20;;
3447;SDS011;1738;49.500;17.736;2023-07-31T14:30:14;3.27;;;2.00;;
3447;SDS011;1738;49.500;17.736;2023-07-31T14:32:40;4.40;;;2.00;;
3447;SDS011;1738;49.500;17.736;2023-07-31T14:35:06;4.73;;;1.70;;
3447;SDS011;1738;49.500;17.736;2023-07-31T14:37:38;5.00;;;2.07;;
3447;SDS011;1738;49.500;17.736;2023-07-31T14:40:03;3.83;;;2.07;;
3447;SDS011;1738;49.500;17.736;2023-07-31T14:42:29;3.73;;;1.90;;
3447;SDS011;1738;49.500;17.736;2023-07-31T14:44:55;4.40;;;1.50;;
3447;SDS011;1738;49.500;17.736;2023-07-31T14:47:21;7.13;;;2.27;;
3447;SDS011;1738;49.500;17.736;2023-07-31T14:49:47;8.10;;;1.93;;
3447;SDS011;1738;49.500;17.736;2023-07-31T14:52:13;3.57;;;2.00;;
3447;SDS011;1738;49.500;17.736;2023-07-31T14:54:38;6.70;;;2.60;;
3447;SDS011;1738;49.500;17.736;2023-07-31T14:57:04;4.50;;;2.17;;
3447;SDS011;1738;49.500;17.736;2023-07-31T14:59:30;5.03;;;1.80;;